createdAt,value
2018-07-10T00:00:57.025Z,99.90
2018-07-10T00:04:17.163Z,99.90
2018-07-10T00:12:00.689Z,99.90
2018-07-10T00:14:38.991Z,99.90
2018-07-10T00:17:16.503Z,99.90
2018-07-10T00:19:53.783Z,99.90
2018-07-10T00:22:31.139Z,99.90
2018-07-10T00:25:08.240Z,99.90
2018-07-10T00:27:45.692Z,99.90
2018-07-10T00:30:23.584Z,99.90
2018-07-10T00:33:01.203Z,99.90
2018-07-10T00:35:37.853Z,99.90
2018-07-10T00:38:25.506Z,99.90
2018-07-10T00:41:02.997Z,99.90
2018-07-10T00:43:40.460Z,99.90
2018-07-10T00:46:17.364Z,99.90
2018-07-10T00:48:53.985Z,99.90
2018-07-10T00:51:31.921Z,99.90
2018-07-10T00:54:09.072Z,99.90
2018-07-10T00:56:46.441Z,99.90
2018-07-10T00:59:23.014Z,99.90
2018-07-10T01:02:00.431Z,99.90
2018-07-10T01:04:38.609Z,99.90
2018-07-10T01:07:15.221Z,99.90
2018-07-10T01:09:52.103Z,99.90
2018-07-10T01:15:05.880Z,99.90
2018-07-10T01:17:43.472Z,99.90
2018-07-10T01:20:20.871Z,99.90
2018-07-10T01:22:58.078Z,99.90
2018-07-10T01:25:35.151Z,99.90
2018-07-10T01:30:48.806Z,99.90
2018-07-10T01:33:26.232Z,99.90
2018-07-10T01:36:05.521Z,99.90
2018-07-10T01:38:42.067Z,99.90
2018-07-10T01:41:19.026Z,99.90
2018-07-10T01:43:55.861Z,99.90
2018-07-10T01:46:33.930Z,99.90
2018-07-10T01:49:11.579Z,99.90
2018-07-10T01:51:48.996Z,99.90
2018-07-10T01:54:26.554Z,99.90
2018-07-10T01:57:03.329Z,99.90
2018-07-10T01:59:40.146Z,99.90
2018-07-10T02:02:16.860Z,99.90
2018-07-10T02:04:54.719Z,99.90
2018-07-10T02:12:47.003Z,99.90
2018-07-10T02:15:24.470Z,99.90
2018-07-10T02:18:02.209Z,99.90
2018-07-10T02:23:21.306Z,99.90
2018-07-10T02:25:58.581Z,99.90
2018-07-10T02:28:36.311Z,99.90
2018-07-10T02:33:50.623Z,99.90
2018-07-10T02:41:42.013Z,99.90
2018-07-10T02:44:19.227Z,99.90
2018-07-10T02:46:55.943Z,99.90
2018-07-10T02:49:32.870Z,99.90
2018-07-10T02:52:10.702Z,99.90
2018-07-10T02:54:48.134Z,99.90
2018-07-10T02:57:25.679Z,99.90
2018-07-10T03:00:02.753Z,99.90
2018-07-10T03:02:39.710Z,99.90
2018-07-10T03:05:16.538Z,99.90
2018-07-10T03:13:07.233Z,99.90
2018-07-10T03:15:45.194Z,99.90
2018-07-10T03:18:23.361Z,99.90
2018-07-10T03:21:00.741Z,99.90
2018-07-10T03:23:37.371Z,99.90
2018-07-10T03:26:14.376Z,99.90
2018-07-10T03:28:51.459Z,99.90
2018-07-10T03:31:28.147Z,99.90
2018-07-10T03:34:05.405Z,99.90
2018-07-10T03:36:43.436Z,99.90
2018-07-10T03:39:21.213Z,99.90
2018-07-10T03:41:59.522Z,99.90
2018-07-10T03:44:36.434Z,99.90
2018-07-10T03:47:15.486Z,99.90
2018-07-10T03:49:53.201Z,99.90
2018-07-10T03:52:34.942Z,99.90
2018-07-10T03:55:16.212Z,99.90
2018-07-10T03:57:57.819Z,99.90
2018-07-10T04:00:36.946Z,99.90
2018-07-10T04:03:14.387Z,99.90
2018-07-10T04:05:52.384Z,99.90
2018-07-10T04:08:30.049Z,99.90
2018-07-10T04:11:07.493Z,99.90
2018-07-10T04:13:44.234Z,99.90
2018-07-10T04:16:20.934Z,99.90
2018-07-10T04:18:58.223Z,99.90
2018-07-10T04:21:35.859Z,99.90
2018-07-10T04:24:19.042Z,99.90
2018-07-10T04:27:34.549Z,99.90
2018-07-10T04:30:18.628Z,99.90
2018-07-10T04:35:32.505Z,99.90
2018-07-10T04:38:13.298Z,99.90
2018-07-10T04:43:30.150Z,99.90
2018-07-10T04:48:46.466Z,99.90
2018-07-10T04:51:34.106Z,99.90
2018-07-10T04:54:23.783Z,99.90
2018-07-10T04:57:14.863Z,99.90
2018-07-10T04:59:52.514Z,99.90
2018-07-10T05:02:29.553Z,99.90
2018-07-10T05:05:06.961Z,99.90
2018-07-10T05:07:45.203Z,99.90
2018-07-10T05:13:01.968Z,99.90
2018-07-10T05:15:40.571Z,99.90
2018-07-10T05:18:17.399Z,99.90
2018-07-10T05:20:54.687Z,99.90
2018-07-10T05:26:09.815Z,99.90
2018-07-10T05:28:54.086Z,99.90
2018-07-10T05:31:32.138Z,99.90
2018-07-10T05:34:08.972Z,99.90
2018-07-10T05:36:46.125Z,99.90
2018-07-10T05:39:24.228Z,99.90
2018-07-10T05:42:01.674Z,99.90
2018-07-10T05:44:38.442Z,99.90
2018-07-10T05:47:15.264Z,99.90
2018-07-10T05:52:29.114Z,99.90
2018-07-10T05:55:05.920Z,99.90
2018-07-10T05:57:42.615Z,99.90
2018-07-10T06:00:21.144Z,99.90
2018-07-10T06:02:59.525Z,99.90
2018-07-10T06:05:36.459Z,99.90
2018-07-10T06:08:14.249Z,99.90
2018-07-10T06:10:51.036Z,99.90
2018-07-10T06:16:04.513Z,99.90
2018-07-10T06:21:19.782Z,99.90
2018-07-10T06:29:13.405Z,99.90
2018-07-10T06:31:53.736Z,99.90
2018-07-10T06:34:37.909Z,99.90
2018-07-10T06:37:18.868Z,99.90
2018-07-10T06:39:56.946Z,99.90
2018-07-10T06:43:45.094Z,99.90
2018-07-10T06:46:30.072Z,99.90
2018-07-10T06:49:18.259Z,99.90
2018-07-10T06:52:17.458Z,99.90
2018-07-10T06:55:08.571Z,99.90
2018-07-10T06:57:50.093Z,99.90
2018-07-10T07:00:27.811Z,99.90
2018-07-10T07:03:04.890Z,99.90
2018-07-10T07:05:42.733Z,99.90
2018-07-10T07:08:22.130Z,99.90
2018-07-10T07:13:37.547Z,99.90
2018-07-10T07:16:14.772Z,99.90
2018-07-10T07:18:52.918Z,99.90
2018-07-10T07:21:30.229Z,99.90
2018-07-10T07:26:43.886Z,98.60
2018-07-10T07:29:21.200Z,97.40
2018-07-10T07:34:35.455Z,94.10
2018-07-10T07:37:14.018Z,92.70
2018-07-10T07:39:50.869Z,91.60
2018-07-10T07:45:06.009Z,91.30
2018-07-10T07:47:43.062Z,90.20
2018-07-10T07:50:22.705Z,88.80
2018-07-10T07:55:37.168Z,76.90
2018-07-10T07:58:14.807Z,77.20
2018-07-10T08:00:52.311Z,75.30
2018-07-10T08:03:30.918Z,76.70
2018-07-10T08:06:08.962Z,77.40
2018-07-10T08:08:46.040Z,77.10
2018-07-10T08:11:23.941Z,76.60
2018-07-10T08:14:01.475Z,70.10
2018-07-10T08:16:38.486Z,68.50
2018-07-10T08:19:17.395Z,76.00
2018-07-10T08:24:32.308Z,77.30
2018-07-10T08:27:09.901Z,71.60
2018-07-10T08:35:01.096Z,71.00
2018-07-10T08:37:38.251Z,71.60
2018-07-10T08:40:15.194Z,71.50
2018-07-10T08:42:52.989Z,77.90
2018-07-10T08:45:30.702Z,77.60
2018-07-10T08:48:07.664Z,71.70
2018-07-10T08:50:45.472Z,68.10
2018-07-10T08:53:26.419Z,68.10
2018-07-10T08:56:04.229Z,68.10
2018-07-10T08:58:41.763Z,70.40
2018-07-10T09:01:19.368Z,70.20
2018-07-10T09:03:56.200Z,69.70
2018-07-10T09:06:33.940Z,69.30
2018-07-10T09:09:10.721Z,68.00
2018-07-10T09:11:47.702Z,67.10
2018-07-10T09:14:27.226Z,68.80
2018-07-10T09:17:05.094Z,71.80
2018-07-10T09:19:42.371Z,69.20
2018-07-10T09:24:57.899Z,67.50
2018-07-10T09:27:35.249Z,67.30
2018-07-10T09:38:25.190Z,67.70
2018-07-10T09:41:05.044Z,66.90
2018-07-10T09:43:45.071Z,64.80
2018-07-10T09:46:22.567Z,68.90
2018-07-10T09:56:49.827Z,79.00
2018-07-10T10:04:45.198Z,76.70
2018-07-10T10:10:13.460Z,79.80
2018-07-10T10:18:09.926Z,78.40
2018-07-10T10:23:24.183Z,78.50
2018-07-10T10:26:01.893Z,77.20
2018-07-10T10:28:40.246Z,75.30
2018-07-10T10:31:17.325Z,75.60
2018-07-10T10:33:54.320Z,73.90
2018-07-10T10:36:32.122Z,74.20
2018-07-10T10:39:10.117Z,71.40
2018-07-10T10:41:47.650Z,71.70
2018-07-10T10:44:25.951Z,70.80
2018-07-10T10:47:03.632Z,70.40
2018-07-10T10:49:40.482Z,68.20
2018-07-10T10:52:18.753Z,69.30
2018-07-10T10:54:56.396Z,69.70
2018-07-10T10:57:38.849Z,71.60
2018-07-10T11:00:16.178Z,70.80
2018-07-10T11:02:53.702Z,71.40
2018-07-10T11:05:31.282Z,71.80
2018-07-10T11:08:10.619Z,71.40
2018-07-10T11:10:48.329Z,72.60
2018-07-10T11:13:25.510Z,70.80
2018-07-10T11:16:02.393Z,71.10
2018-07-10T11:19:00.995Z,70.10
2018-07-10T11:21:45.792Z,69.40
2018-07-10T11:24:23.136Z,65.10
2018-07-10T11:27:00.036Z,65.70
2018-07-10T11:29:36.943Z,65.40
2018-07-10T11:32:15.032Z,65.90
2018-07-10T11:34:52.736Z,66.80
2018-07-10T11:37:30.556Z,66.00
2018-07-10T11:40:07.554Z,64.10
2018-07-10T11:42:46.225Z,64.70
2018-07-10T11:45:23.107Z,63.10
2018-07-10T11:48:00.474Z,63.70
2018-07-10T11:50:38.089Z,63.90
2018-07-10T11:53:15.948Z,64.80
2018-07-10T11:58:51.929Z,61.90
2018-07-10T12:01:29.381Z,66.50
2018-07-10T12:04:06.602Z,67.10
2018-07-10T12:06:51.673Z,64.90
2018-07-10T12:09:30.603Z,63.60
2018-07-10T12:12:08.736Z,57.40
2018-07-10T12:14:46.480Z,55.30
2018-07-10T12:17:23.297Z,55.80
2018-07-10T12:20:00.529Z,55.90
2018-07-10T12:25:16.232Z,52.80
2018-07-10T12:27:53.827Z,55.80
2018-07-10T12:30:31.387Z,55.40
2018-07-10T12:33:09.275Z,56.00
2018-07-10T12:35:47.446Z,57.50
2018-07-10T12:38:25.034Z,56.50
2018-07-10T12:41:02.673Z,56.90
2018-07-10T12:43:40.351Z,59.30
2018-07-10T12:46:18.160Z,59.30
2018-07-10T12:48:55.246Z,59.40
2018-07-10T12:51:32.824Z,59.90
2018-07-10T12:54:09.827Z,57.60
2018-07-10T12:56:47.722Z,58.10
2018-07-10T12:59:25.446Z,59.00
2018-07-10T13:09:53.681Z,63.40
2018-07-10T13:25:36.362Z,69.20
2018-07-10T13:30:49.447Z,69.70
2018-07-10T13:49:07.881Z,68.90
2018-07-10T14:10:02.330Z,75.70
2018-07-10T14:17:53.988Z,73.30
2018-07-10T14:25:54.262Z,77.30
2018-07-10T14:31:08.762Z,76.50
2018-07-10T14:39:00.379Z,75.20
2018-07-10T15:02:32.378Z,75.50
2018-07-10T15:23:32.423Z,77.30
2018-07-10T15:26:09.463Z,79.40
2018-07-10T15:36:36.782Z,79.70
2018-07-10T15:39:14.450Z,82.30
2018-07-10T15:44:30.548Z,83.90
2018-07-10T15:52:21.970Z,86.50
2018-07-10T16:02:51.116Z,84.10
2018-07-10T16:10:58.374Z,85.10
2018-07-10T16:18:58.518Z,86.10
2018-07-10T16:37:23.272Z,86.60
2018-07-10T17:16:40.009Z,90.50
2018-07-10T17:29:46.413Z,94.10
2018-07-10T17:45:33.270Z,98.90
2018-07-10T18:22:41.481Z,99.90
2018-07-10T18:33:09.768Z,99.90
2018-07-10T18:41:01.195Z,99.90
2018-07-10T18:43:39.834Z,99.90
2018-07-10T18:46:17.586Z,99.90
2018-07-10T19:04:51.799Z,99.90
2018-07-10T19:10:05.883Z,99.90
2018-07-10T19:12:44.607Z,99.90
2018-07-10T19:20:38.501Z,99.90
2018-07-10T19:23:31.446Z,99.90
2018-07-10T19:26:08.876Z,99.90
2018-07-10T19:36:38.589Z,99.90
2018-07-10T19:44:30.978Z,99.90
2018-07-10T20:08:05.167Z,99.90
2018-07-10T20:10:47.856Z,99.90
2018-07-10T20:16:12.748Z,99.90
2018-07-10T20:21:43.363Z,99.90
2018-07-10T20:27:05.462Z,99.90
2018-07-10T20:51:33.100Z,99.90
2018-07-10T20:57:06.207Z,99.90
2018-07-10T21:02:27.340Z,99.90
2018-07-10T21:10:40.519Z,99.90
2018-07-10T21:13:58.757Z,99.90
2018-07-10T21:22:19.978Z,99.90
2018-07-10T21:35:56.535Z,99.90
2018-07-10T21:50:30.512Z,99.90
2018-07-10T21:55:45.645Z,99.90
2018-07-10T22:04:42.820Z,99.90
2018-07-10T22:10:05.755Z,99.90
2018-07-10T22:18:04.376Z,99.90
2018-07-10T22:23:18.760Z,99.90
2018-07-10T22:36:28.000Z,99.90
2018-07-10T22:41:48.041Z,99.90
2018-07-10T22:44:27.802Z,99.90
2018-07-10T22:47:06.195Z,99.90
2018-07-10T22:49:45.102Z,99.90
2018-07-10T22:55:00.566Z,99.90
2018-07-10T22:57:38.209Z,99.90
2018-07-10T23:00:25.789Z,99.90
2018-07-10T23:03:18.719Z,99.90
2018-07-10T23:05:56.168Z,99.90
2018-07-10T23:19:03.743Z,99.90
2018-07-10T23:26:55.235Z,99.90
2018-07-10T23:29:36.678Z,99.90
2018-07-10T23:32:13.691Z,99.90
2018-07-10T23:34:50.434Z,99.90
2018-07-10T23:37:27.458Z,99.90
2018-07-10T23:42:41.882Z,99.90
2018-07-10T23:45:24.555Z,99.90
